Time;durP1;ratioP1;P1;durP2;ratioP2;P2;SDS_P1;SDS_P2;PMS_P1;PMS_P2;Temp;Humidity;BMP_temperature;BMP_pressure;BME280_temperature;BME280_humidity;BME280_pressure;Samples;Min_cycle;Max_cycle;Signal;HPM_P1;HPM_P2
2024/03/06 00:01:04;;;;;;;;;;;;;;;7.92;77.91;96119.09;7399790;19;1022;-71
2024/03/06 00:03:32;;;;;;;;;;;;;;;7.95;77.83;96112.97;7399573;19;1035;-64
2024/03/06 00:06:01;;;;;;;;;;;;;;;7.91;77.51;96108.75;7397712;19;1841;-69
2024/03/06 00:08:30;;;;;;;;;;;;;;;7.91;76.87;96111.34;7398529;19;2000;-67
2024/03/06 00:11:01;;;;;;;;;;;;;;;7.88;76.85;96106.22;7399454;19;1018;-67
2024/03/06 00:13:29;;;;;;;;;;;;;;;7.85;76.81;96112.41;7398849;19;1033;-67
2024/03/06 00:15:58;;;;;;;;;;;;;;;7.80;76.75;96104.75;7398858;19;1025;-71
2024/03/06 00:18:26;;;;;;;;;;;;;;;7.78;77.03;96108.31;7396779;19;1395;-72
2024/03/06 00:20:55;;;;;;;;;;;;;;;7.75;77.48;96108.41;7398651;19;1080;-70
2024/03/06 00:23:23;;;;;;;;;;;;;;;7.67;78.08;96099.09;7398954;19;972;-65
2024/03/06 00:25:52;;;;;;;;;;;;;;;7.51;79.33;96103.97;7397698;19;1926;-72
2024/03/06 00:28:23;;;;;;;;;;;;;;;7.46;80.16;96098.91;7398626;19;1830;-71
2024/03/06 00:30:51;;;;;;;;;;;;;;;7.46;79.93;96096.31;7398829;19;1026;-72
2024/03/06 00:33:19;;;;;;;;;;;;;;;7.51;79.66;96092.72;7398675;19;1014;-73
2024/03/06 00:35:48;;;;;;;;;;;;;;;7.53;79.55;96091.75;7398694;19;1358;-71
2024/03/06 00:38:16;;;;;;;;;;;;;;;7.54;79.81;96090.88;7398500;19;973;-71
2024/03/06 00:40:45;;;;;;;;;;;;;;;7.59;79.70;96088.94;7398454;19;961;-69
2024/03/06 00:43:10;;;;;;;;;;;;;;;7.61;79.17;96090.66;7398318;19;1818;-69
2024/03/06 00:45:41;;;;;;;;;;;;;;;7.60;78.91;96087.19;7396919;19;1896;-70
2024/03/06 00:48:10;;;;;;;;;;;;;;;7.62;79.01;96090.63;7397701;19;1052;-69
2024/03/06 00:50:38;;;;;;;;;;;;;;;7.65;79.12;96093.09;7397614;19;1151;-71
2024/03/06 00:53:07;;;;;;;;;;;;;;;7.69;79.13;96091.25;7397941;19;1847;-67
2024/03/06 00:55:35;;;;;;;;;;;;;;;7.66;78.86;96097.41;7397906;19;968;-67
2024/03/06 00:58:04;;;;;;;;;;;;;;;7.61;78.90;96093.28;7397704;19;1810;-70
2024/03/06 01:00:33;;;;;;;;;;;;;;;7.52;78.89;96092.66;7397624;19;2008;-67
2024/03/06 01:03:04;;;;;;;;;;;;;;;7.51;78.87;96096.16;7397645;19;1052;-70
2024/03/06 01:05:32;;;;;;;;;;;;;;;7.50;79.53;96102.28;7396552;19;1854;-71
2024/03/06 01:08:01;;;;;;;;;;;;;;;7.53;79.57;96104.75;7397193;19;1811;-72
2024/03/06 01:10:30;;;;;;;;;;;;;;;7.57;79.44;96101.19;7396975;19;1171;-67
2024/03/06 01:12:58;;;;;;;;;;;;;;;7.57;78.43;96101.19;7397480;19;1065;-70
2024/03/06 01:15:26;;;;;;;;;;;;;;;7.54;78.69;96095.22;7397325;19;960;-68
2024/03/06 01:17:55;;;;;;;;;;;;;;;7.56;78.17;96098.63;7397242;19;950;-70
2024/03/06 01:23:06;;;;;;;;;;;;;;;7.40;77.56;96100.84;7393582;19;1076;-70
2024/03/06 01:25:35;;;;;;;;;;;;;;;7.27;77.43;96103.88;7396187;19;1842;-69
2024/03/06 01:28:03;;;;;;;;;;;;;;;7.17;78.03;96105.06;7396621;19;1027;-67
2024/03/06 01:30:32;;;;;;;;;;;;;;;7.08;77.87;96106.22;7396848;19;1032;-74
2024/03/06 01:33:01;;;;;;;;;;;;;;;7.08;78.81;96098.41;7396388;19;1053;-73
2024/03/06 01:35:32;;;;;;;;;;;;;;;7.05;78.66;96101.09;7396331;19;1011;-64
2024/03/06 01:38:01;;;;;;;;;;;;;;;7.04;78.44;96105.44;7396694;19;1055;-70
2024/03/06 01:40:30;;;;;;;;;;;;;;;6.97;78.69;96116.06;7396063;19;1033;-69
2024/03/06 01:42:58;;;;;;;;;;;;;;;6.91;79.32;96123.16;7396047;19;1233;-71
2024/03/06 01:45:27;;;;;;;;;;;;;;;6.93;80.09;96123.97;7395705;19;1842;-69
2024/03/06 01:47:55;;;;;;;;;;;;;;;6.85;80.03;96123.34;7396648;19;1871;-65
2024/03/06 01:50:23;;;;;;;;;;;;;;;6.89;79.79;96132.75;7396023;19;1819;-66
2024/03/06 01:52:54;;;;;;;;;;;;;;;6.97;79.96;96132.53;7396245;19;1801;-70
2024/03/06 01:55:23;;;;;;;;;;;;;;;7.08;79.53;96132.22;7394410;19;1748;-65
2024/03/06 01:57:51;;;;;;;;;;;;;;;7.20;78.96;96133.59;7396145;19;1907;-73
2024/03/06 02:00:20;;;;;;;;;;;;;;;7.30;78.66;96137.59;7395668;19;1135;-69
2024/03/06 02:02:49;;;;;;;;;;;;;;;7.31;78.59;96133.22;7395479;19;1076;-72
2024/03/06 02:05:18;;;;;;;;;;;;;;;7.32;78.54;96141.00;7395537;19;980;-72
2024/03/06 02:07:47;;;;;;;;;;;;;;;7.30;78.76;96139.34;7395195;19;956;-72
2024/03/06 02:10:18;;;;;;;;;;;;;;;7.37;78.65;96142.63;7393343;19;1198;-64
2024/03/06 02:12:48;;;;;;;;;;;;;;;7.43;78.82;96142.41;7395111;19;1041;-67
2024/03/06 02:15:16;;;;;;;;;;;;;;;7.52;78.24;96147.31;7395528;19;958;-66
2024/03/06 02:17:46;;;;;;;;;;;;;;;7.58;78.39;96139.31;7395405;19;1119;-69
2024/03/06 02:20:15;;;;;;;;;;;;;;;7.59;78.27;96148.81;7394835;19;1104;-68
2024/03/06 02:22:46;;;;;;;;;;;;;;;7.62;77.56;96140.09;7394799;19;1104;-72
2024/03/06 02:25:15;;;;;;;;;;;;;;;7.53;77.77;96148.19;7394787;19;1828;-69
2024/03/06 02:27:44;;;;;;;;;;;;;;;7.50;78.02;96143.94;7393508;19;1849;-69
2024/03/06 02:30:13;;;;;;;;;;;;;;;7.52;77.86;96143.84;7394649;19;1111;-71
2024/03/06 02:32:43;;;;;;;;;;;;;;;7.49;77.68;96149.19;7394906;19;911;-67
2024/03/06 02:35:12;;;;;;;;;;;;;;;7.39;77.93;96143.41;7392625;19;1943;-68
2024/03/06 02:37:40;;;;;;;;;;;;;;;7.28;78.88;96146.34;7394717;19;1830;-66
2024/03/06 02:40:12;;;;;;;;;;;;;;;7.36;78.37;96153.91;7394348;19;1423;-69
2024/03/06 02:42:41;;;;;;;;;;;;;;;7.35;78.00;96155.69;7402549;19;1022;-69
2024/03/06 02:45:10;;;;;;;;;;;;;;;7.39;77.28;96152.06;7402420;19;957;-67
2024/03/06 02:47:39;;;;;;;;;;;;;;;7.16;77.98;96153.63;7399497;19;1838;-73
2024/03/06 02:50:08;;;;;;;;;;;;;;;7.20;77.71;96149.19;7402169;19;1674;-69
2024/03/06 02:52:36;;;;;;;;;;;;;;;7.16;77.79;96144.97;7402114;19;965;-70
2024/03/06 02:55:05;;;;;;;;;;;;;;;7.15;76.93;96153.69;7401620;19;991;-66
2024/03/06 02:57:36;;;;;;;;;;;;;;;7.14;76.68;96147.63;7401960;19;1842;-68
2024/03/06 03:00:09;;;;;;;;;;;;;;;7.14;75.98;96163.25;7402014;19;1010;-69
2024/03/06 03:02:37;;;;;;;;;;;;;;;7.08;75.61;96153.03;7401379;19;1104;-69
2024/03/06 03:05:05;;;;;;;;;;;;;;;7.00;75.58;96150.66;7401388;19;1104;-69
2024/03/06 03:07:34;;;;;;;;;;;;;;;6.93;74.76;96151.72;7398960;19;1913;-66
2024/03/06 03:10:03;;;;;;;;;;;;;;;6.83;74.65;96153.72;7398385;19;1162;-69
2024/03/06 03:12:32;;;;;;;;;;;;;;;6.62;76.33;96150.03;7400351;19;1177;-69
2024/03/06 03:15:03;;;;;;;;;;;;;;;6.56;76.33;96158.81;7398278;19;1916;-68
2024/03/06 03:17:31;;;;;;;;;;;;;;;6.52;76.81;96147.69;7400906;19;1064;-67
2024/03/06 03:20:00;;;;;;;;;;;;;;;6.48;76.80;96159.06;7401684;19;1691;-67
2024/03/06 03:22:28;;;;;;;;;;;;;;;6.51;76.18;96155.50;7401003;19;1805;-68
2024/03/06 03:24:56;;;;;;;;;;;;;;;6.49;75.84;96159.91;7400558;19;1131;-74
2024/03/06 03:27:25;;;;;;;;;;;;;;;6.49;75.40;96157.28;7398917;19;1835;-71
2024/03/06 03:29:53;;;;;;;;;;;;;;;6.46;75.26;96160.84;7400398;19;1065;-66
2024/03/06 03:32:24;;;;;;;;;;;;;;;6.49;74.85;96165.94;7400284;19;1299;-70
2024/03/06 03:34:53;;;;;;;;;;;;;;;6.51;74.90;96171.09;7400169;19;1007;-66
2024/03/06 03:37:21;;;;;;;;;;;;;;;6.51;74.38;96171.97;7400522;19;1038;-68
2024/03/06 03:39:50;;;;;;;;;;;;;;;6.44;74.09;96183.41;7400094;19;1057;-72
2024/03/06 03:42:19;;;;;;;;;;;;;;;6.34;73.36;96176.75;7400393;19;1000;-71
2024/03/06 03:44:47;;;;;;;;;;;;;;;6.22;72.87;96176.19;7400401;19;1037;-68
2024/03/06 03:47:15;;;;;;;;;;;;;;;6.12;72.75;96170.41;7398628;19;1846;-68
2024/03/06 03:49:46;;;;;;;;;;;;;;;6.06;72.61;96183.53;7400208;19;1028;-71
2024/03/06 03:52:15;;;;;;;;;;;;;;;5.93;72.07;96183.81;7399497;19;1013;-66
2024/03/06 03:54:44;;;;;;;;;;;;;;;5.71;72.62;96185.22;7399820;19;1822;-66
2024/03/06 03:57:14;;;;;;;;;;;;;;;5.38;73.80;96197.22;7399758;19;1951;-63
2024/03/06 03:59:42;;;;;;;;;;;;;;;5.33;73.57;96199.09;7399843;19;1067;-74
2024/03/06 04:02:11;;;;;;;;;;;;;;;5.30;74.53;96201.75;7399602;19;1720;-68
2024/03/06 04:04:39;;;;;;;;;;;;;;;5.26;74.75;96197.50;7399546;19;1903;-71
2024/03/06 04:07:10;;;;;;;;;;;;;;;5.14;74.37;96206.41;7397783;19;1838;-70
2024/03/06 04:09:39;;;;;;;;;;;;;;;5.02;75.68;96208.38;7397242;19;1069;-72
2024/03/06 04:12:07;;;;;;;;;;;;;;;5.01;75.01;96211.00;7399039;19;1068;-69
2024/03/06 04:14:36;;;;;;;;;;;;;;;5.01;74.85;96213.59;7398945;19;1084;-69
2024/03/06 04:17:04;;;;;;;;;;;;;;;4.96;74.39;96218.88;7398925;19;1041;-70
2024/03/06 04:19:34;;;;;;;;;;;;;;;4.93;73.84;96224.13;7399310;19;1168;-68
2024/03/06 04:22:02;;;;;;;;;;;;;;;4.79;73.91;96225.25;7398917;19;1812;-70
2024/03/06 04:24:33;;;;;;;;;;;;;;;4.82;75.02;96226.94;7399047;19;1028;-71
2024/03/06 04:27:02;;;;;;;;;;;;;;;4.75;75.42;96221.03;7397895;19;1853;-70
2024/03/06 04:29:30;;;;;;;;;;;;;;;4.69;75.03;96221.13;7398710;19;1913;-67
2024/03/06 04:31:59;;;;;;;;;;;;;;;4.70;74.46;96228.03;7398594;19;1954;-66
2024/03/06 04:34:27;;;;;;;;;;;;;;;4.59;74.93;96225.66;7398625;19;1025;-71
2024/03/06 04:36:55;;;;;;;;;;;;;;;4.64;75.68;96228.16;7398583;19;1146;-71
2024/03/06 04:39:24;;;;;;;;;;;;;;;4.62;75.47;96229.91;7398385;19;1888;-63
2024/03/06 04:41:56;;;;;;;;;;;;;;;4.62;74.78;96229.91;7398245;19;1866;-65
2024/03/06 04:44:24;;;;;;;;;;;;;;;4.62;75.31;96235.09;7397912;19;960;-72
2024/03/06 04:46:53;;;;;;;;;;;;;;;4.63;74.88;96229.88;7397685;19;1846;-66
2024/03/06 04:49:21;;;;;;;;;;;;;;;4.61;74.28;96231.63;7398095;19;1780;-68
2024/03/06 04:51:50;;;;;;;;;;;;;;;4.59;75.30;96229.97;7397969;19;1913;-67
2024/03/06 04:54:18;;;;;;;;;;;;;;;4.61;77.69;96233.41;7397945;19;1827;-67
2024/03/06 04:56:47;;;;;;;;;;;;;;;4.54;77.91;96227.47;7397785;19;1859;-68
2024/03/06 04:59:18;;;;;;;;;;;;;;;4.45;78.74;96228.50;7397973;19;1014;-65
2024/03/06 05:01:46;;;;;;;;;;;;;;;4.47;79.05;96223.28;7397255;19;1053;-71
2024/03/06 05:04:15;;;;;;;;;;;;;;;4.58;78.01;96228.28;7396818;19;1664;-68
2024/03/06 05:06:43;;;;;;;;;;;;;;;4.54;78.68;96230.06;7397302;19;2008;-69
2024/03/06 05:09:12;;;;;;;;;;;;;;;4.53;78.77;96231.81;7396324;19;1817;-73
2024/03/06 05:11:40;;;;;;;;;;;;;;;4.59;78.56;96230.84;7397057;19;1211;-69
2024/03/06 05:14:09;;;;;;;;;;;;;;;4.70;78.06;96237.53;7396981;19;1140;-71
2024/03/06 05:16:40;;;;;;;;;;;;;;;4.78;78.11;96233.06;7397086;19;1059;-68
2024/03/06 05:19:10;;;;;;;;;;;;;;;4.87;77.71;96238.06;7396723;19;1139;-70
2024/03/06 05:21:39;;;;;;;;;;;;;;;4.90;77.45;96245.78;7396621;19;1108;-70
2024/03/06 05:24:07;;;;;;;;;;;;;;;4.92;77.72;96251.81;7396852;19;1923;-74
2024/03/06 05:29:32;;;;;;;;;;;;;;;5.10;78.40;96254.91;7396666;19;767;-66
2024/03/06 05:32:03;;;;;;;;;;;;;;;5.22;79.03;96265.88;7396868;19;975;-68
2024/03/06 05:34:31;;;;;;;;;;;;;;;5.20;79.41;96267.69;7396749;19;1030;-69
2024/03/06 05:37:01;;;;;;;;;;;;;;;5.31;79.87;96263.09;7396398;19;896;-72
2024/03/06 05:39:29;;;;;;;;;;;;;;;5.42;79.41;96255.94;7396586;19;1011;-74
2024/03/06 05:41:58;;;;;;;;;;;;;;;5.56;79.24;96259.97;7395933;19;1053;-70
2024/03/06 05:44:26;;;;;;;;;;;;;;;5.72;80.01;96262.22;7395966;19;1052;-70
2024/03/06 05:46:55;;;;;;;;;;;;;;;5.82;80.36;96258.53;7395905;19;1845;-68
2024/03/06 05:49:26;;;;;;;;;;;;;;;5.96;80.76;96270.31;7395843;19;1096;-66
2024/03/06 05:51:55;;;;;;;;;;;;;;;6.00;81.16;96271.94;7395602;19;1012;-66
2024/03/06 05:54:24;;;;;;;;;;;;;;;5.87;83.33;96268.81;7396033;19;1814;-69
2024/03/06 05:56:54;;;;;;;;;;;;;;;5.96;83.89;96263.38;7395532;19;1112;-67
2024/03/06 05:59:24;;;;;;;;;;;;;;;6.12;83.71;96261.31;7395431;19;1147;-62
2024/03/06 06:01:53;;;;;;;;;;;;;;;6.27;83.65;96270.47;7395828;19;976;-73
2024/03/06 06:04:21;;;;;;;;;;;;;;;6.39;84.00;96277.09;7395373;19;1021;-70
2024/03/06 06:06:53;;;;;;;;;;;;;;;6.57;85.05;96277.50;7395495;19;1857;-72
2024/03/06 06:09:21;;;;;;;;;;;;;;;6.82;84.84;96276.84;7394497;19;1074;-71
2024/03/06 06:11:50;;;;;;;;;;;;;;;7.04;84.20;96279.69;7395663;19;955;-72
2024/03/06 06:14:19;;;;;;;;;;;;;;;7.31;83.71;96281.53;7394930;19;1017;-67
2024/03/06 06:16:47;;;;;;;;;;;;;;;7.52;82.35;96280.06;7393702;19;1794;-71
2024/03/06 06:19:16;;;;;;;;;;;;;;;7.78;80.76;96280.16;7395112;19;1979;-70
2024/03/06 06:21:46;;;;;;;;;;;;;;;7.97;80.26;96285.66;7394712;19;1073;-68
2024/03/06 06:24:17;;;;;;;;;;;;;;;8.05;78.73;96286.28;7394679;19;1108;-68
2024/03/06 06:26:45;;;;;;;;;;;;;;;8.22;77.30;96287.50;7394557;19;1081;-67
2024/03/06 06:29:14;;;;;;;;;;;;;;;8.26;76.60;96289.09;7394476;19;1084;-72
2024/03/06 06:31:42;;;;;;;;;;;;;;;8.23;76.12;96286.56;7394509;19;1081;-65
2024/03/06 06:34:11;;;;;;;;;;;;;;;8.21;75.32;96289.22;7394735;19;1864;-66
2024/03/06 06:36:40;;;;;;;;;;;;;;;8.24;75.61;96287.44;7394298;19;1021;-69
2024/03/06 06:39:11;;;;;;;;;;;;;;;8.21;75.91;96288.38;7394247;19;1041;-68
2024/03/06 06:41:43;;;;;;;;;;;;;;;8.27;75.88;96288.19;7394188;19;1030;-73
2024/03/06 06:44:11;;;;;;;;;;;;;;;8.34;76.57;96296.66;7394622;19;1020;-63
2024/03/06 06:46:40;;;;;;;;;;;;;;;8.42;76.24;96294.63;7394369;19;1945;-68
2024/03/06 06:49:08;;;;;;;;;;;;;;;8.47;76.46;96292.75;7392553;19;1838;-63
2024/03/06 06:51:37;;;;;;;;;;;;;;;8.61;76.07;96296.63;7394401;19;944;-65
2024/03/06 06:54:06;;;;;;;;;;;;;;;8.78;75.41;96295.22;7394208;19;1809;-70
2024/03/06 06:56:35;;;;;;;;;;;;;;;8.86;75.10;96290.59;7394285;19;1047;-64
2024/03/06 06:59:06;;;;;;;;;;;;;;;9.05;74.58;96288.19;7393671;19;1097;-67
2024/03/06 07:01:35;;;;;;;;;;;;;;;9.20;73.79;96289.38;7393645;19;1134;-73
2024/03/06 07:04:04;;;;;;;;;;;;;;;9.38;74.04;96289.59;7394047;19;1028;-66
2024/03/06 07:06:33;;;;;;;;;;;;;;;9.54;72.04;96295.09;7394051;19;1110;-69
2024/03/06 07:09:02;;;;;;;;;;;;;;;9.63;72.48;96287.84;7391731;19;1885;-67
2024/03/06 07:11:30;;;;;;;;;;;;;;;9.83;69.73;96300.97;7393390;19;1026;-66
2024/03/06 07:13:59;;;;;;;;;;;;;;;9.96;67.49;96306.56;7393372;19;1093;-68
2024/03/06 07:16:30;;;;;;;;;;;;;;;10.04;66.70;96306.28;7393848;19;1027;-71
2024/03/06 07:18:59;;;;;;;;;;;;;;;10.14;65.28;96306.75;7393637;19;1103;-67
2024/03/06 07:21:28;;;;;;;;;;;;;;;10.28;64.68;96314.03;7393731;19;1012;-68
2024/03/06 07:23:56;;;;;;;;;;;;;;;10.58;66.06;96312.88;7393504;19;811;-64
2024/03/06 07:26:25;;;;;;;;;;;;;;;10.85;63.76;96316.09;7394259;19;1899;-68
2024/03/06 07:28:55;;;;;;;;;;;;;;;11.17;62.98;96315.59;7398525;19;1858;-71
2024/03/06 07:31:23;;;;;;;;;;;;;;;11.41;64.05;96322.44;7400775;19;1036;-67
2024/03/06 07:33:54;;;;;;;;;;;;;;;11.50;60.31;96330.72;7400652;19;1805;-66
2024/03/06 07:36:23;;;;;;;;;;;;;;;11.41;61.35;96323.28;7400142;19;1053;-69
2024/03/06 07:38:52;;;;;;;;;;;;;;;11.60;60.23;96328.56;7400077;19;1127;-71
2024/03/06 07:41:20;;;;;;;;;;;;;;;11.98;60.13;96325.06;7400828;19;1725;-68
2024/03/06 07:43:48;;;;;;;;;;;;;;;12.36;58.94;96332.06;7400422;19;1012;-72
2024/03/06 07:46:17;;;;;;;;;;;;;;;12.66;58.15;96328.00;7399846;19;1033;-72
2024/03/06 07:48:46;;;;;;;;;;;;;;;12.69;56.83;96327.84;7398186;19;1868;-72
2024/03/06 07:51:17;;;;;;;;;;;;;;;12.69;56.67;96333.09;7399808;19;1029;-71
2024/03/06 07:53:46;;;;;;;;;;;;;;;12.81;55.96;96329.00;7399669;19;1083;-70
2024/03/06 07:56:15;;;;;;;;;;;;;;;12.94;57.10;96331.84;7399824;19;2100;-74
2024/03/06 07:58:43;;;;;;;;;;;;;;;13.15;56.21;96347.44;7399828;19;1817;-72
2024/03/06 08:01:12;;;;;;;;;;;;;;;13.04;53.73;96341.91;7399711;19;956;-75
2024/03/06 08:03:43;;;;;;;;;;;;;;;12.87;55.43;96344.47;7399330;19;1088;-72
2024/03/06 08:06:11;;;;;;;;;;;;;;;12.57;55.93;96338.94;7399618;19;1026;-69
2024/03/06 08:08:43;;;;;;;;;;;;;;;12.20;56.81;96342.44;7397791;19;1921;-70
2024/03/06 08:11:13;;;;;;;;;;;;;;;12.01;57.64;96335.41;7399098;19;1076;-71
2024/03/06 08:13:41;;;;;;;;;;;;;;;11.96;58.16;96340.03;7399552;19;1016;-73
2024/03/06 08:16:10;;;;;;;;;;;;;;;12.00;58.37;96348.59;7399023;19;1022;-70
2024/03/06 08:18:39;;;;;;;;;;;;;;;12.07;58.34;96343.97;7399102;19;886;-68
2024/03/06 08:21:08;;;;;;;;;;;;;;;12.07;57.21;96344.78;7399146;19;1896;-69
2024/03/06 08:23:36;;;;;;;;;;;;;;;12.19;57.19;96342.53;7398992;19;1831;-70
2024/03/06 08:26:07;;;;;;;;;;;;;;;12.19;56.49;96350.38;7398932;19;1638;-73
2024/03/06 08:28:36;;;;;;;;;;;;;;;12.07;56.79;96350.03;7397352;19;1842;-70
2024/03/06 08:31:04;;;;;;;;;;;;;;;12.10;56.02;96352.50;7398986;19;967;-72
2024/03/06 08:33:33;;;;;;;;;;;;;;;12.05;55.98;96353.63;7398886;19;1040;-67
2024/03/06 08:36:02;;;;;;;;;;;;;;;12.01;55.76;96350.28;7398806;19;992;-67
2024/03/06 08:38:30;;;;;;;;;;;;;;;12.06;55.22;96342.19;7396156;19;1076;-68
2024/03/06 08:40:59;;;;;;;;;;;;;;;12.15;55.63;96347.06;7398449;19;1832;-69
2024/03/06 08:43:30;;;;;;;;;;;;;;;12.32;55.36;96346.25;7398373;19;1793;-69
2024/03/06 08:45:58;;;;;;;;;;;;;;;12.46;55.45;96345.56;7397966;19;1057;-69
2024/03/06 08:48:27;;;;;;;;;;;;;;;12.67;55.27;96341.97;7397035;19;1849;-65
2024/03/06 08:50:55;;;;;;;;;;;;;;;12.84;56.21;96341.97;7397787;19;1128;-64
2024/03/06 08:53:24;;;;;;;;;;;;;;;13.09;54.93;96343.34;7398181;19;1043;-68
2024/03/06 08:55:50;;;;;;;;;;;;;;;13.11;54.45;96354.63;7397978;19;1836;-68
2024/03/06 08:58:20;;;;;;;;;;;;;;;13.05;54.71;96356.72;7397514;19;899;-68
2024/03/06 09:00:51;;;;;;;;;;;;;;;13.13;55.53;96357.19;7397958;19;1040;-70
2024/03/06 09:03:20;;;;;;;;;;;;;;;13.10;53.58;96355.53;7397422;19;1088;-67
2024/03/06 09:05:48;;;;;;;;;;;;;;;13.12;54.17;96358.94;7397282;19;1013;-70
2024/03/06 09:08:16;;;;;;;;;;;;;;;13.16;54.15;96350.91;7396284;19;1844;-71
2024/03/06 09:10:45;;;;;;;;;;;;;;;13.14;53.98;96362.34;7397203;19;1113;-71
2024/03/06 09:13:13;;;;;;;;;;;;;;;13.16;53.51;96361.44;7397087;19;1104;-67
2024/03/06 09:15:42;;;;;;;;;;;;;;;13.18;54.14;96356.94;7397436;19;938;-70
2024/03/06 09:18:13;;;;;;;;;;;;;;;13.21;55.06;96354.13;7397464;19;1036;-66
2024/03/06 09:20:41;;;;;;;;;;;;;;;13.08;54.37;96360.03;7396804;19;1048;-69
2024/03/06 09:23:10;;;;;;;;;;;;;;;13.09;53.95;96356.47;7397195;19;952;-70
2024/03/06 09:25:40;;;;;;;;;;;;;;;13.05;54.06;96357.56;7396643;19;1112;-68
2024/03/06 09:28:08;;;;;;;;;;;;;;;12.99;53.87;96356.13;7396806;19;1840;-66
2024/03/06 09:30:37;;;;;;;;;;;;;;;12.88;54.14;96361.91;7396517;19;1080;-67
2024/03/06 09:33:06;;;;;;;;;;;;;;;12.92;55.86;96356.50;7396733;19;1868;-70
2024/03/06 09:35:37;;;;;;;;;;;;;;;12.98;55.64;96354.41;7396235;19;1017;-69
2024/03/06 09:38:05;;;;;;;;;;;;;;;13.06;54.53;96356.63;7396672;19;1035;-70
2024/03/06 09:40:34;;;;;;;;;;;;;;;13.09;53.86;96356.47;7396360;19;1853;-67
2024/03/06 09:43:02;;;;;;;;;;;;;;;12.81;53.53;96352.63;7396026;19;1199;-69
2024/03/06 09:45:31;;;;;;;;;;;;;;;12.43;54.58;96350.97;7396099;19;1807;-66
2024/03/06 09:47:59;;;;;;;;;;;;;;;12.32;53.93;96351.50;7395697;19;1860;-72
2024/03/06 09:50:28;;;;;;;;;;;;;;;12.21;55.37;96353.78;7395796;19;1831;-67
2024/03/06 09:53:01;;;;;;;;;;;;;;;12.36;56.25;96346.94;7395735;19;1102;-70
2024/03/06 09:55:30;;;;;;;;;;;;;;;12.76;55.32;96347.63;7395611;19;1014;-67
2024/03/06 09:57:56;;;;;;;;;;;;;;;13.19;53.20;96351.63;7395595;19;1034;-69
2024/03/06 10:00:26;;;;;;;;;;;;;;;13.34;51.03;96359.63;7395393;19;1310;-73
2024/03/06 10:02:57;;;;;;;;;;;;;;;13.47;50.50;96351.94;7395459;19;1024;-68
2024/03/06 10:05:27;;;;;;;;;;;;;;;13.66;49.76;96351.84;7395734;19;972;-66
2024/03/06 10:07:55;;;;;;;;;;;;;;;13.95;51.59;96348.56;7395816;19;1008;-70
2024/03/06 10:10:26;;;;;;;;;;;;;;;14.22;49.44;96348.84;7393656;19;1849;-70
2024/03/06 10:12:56;;;;;;;;;;;;;;;14.25;47.19;96353.94;7395115;19;1148;-70
2024/03/06 10:15:26;;;;;;;;;;;;;;;13.74;48.68;96356.69;7395016;19;1108;-69
2024/03/06 10:17:55;;;;;;;;;;;;;;;13.63;48.60;96355.50;7395470;19;1036;-71
2024/03/06 10:20:24;;;;;;;;;;;;;;;13.45;49.98;96352.03;7394929;19;1867;-67
2024/03/06 10:22:53;;;;;;;;;;;;;;;13.33;49.33;96348.25;7395114;19;1893;-68
2024/03/06 10:25:22;;;;;;;;;;;;;;;13.03;50.62;96343.66;7395015;19;1799;-69
2024/03/06 10:28:08;;;;;;;;;;;;;;;12.73;51.71;96349.53;7395133;19;1016;-67
2024/03/06 10:30:41;;;;;;;;;;;;;;;12.49;51.93;96341.94;7394974;19;1190;-72
2024/03/06 10:33:10;;;;;;;;;;;;;;;12.33;52.25;96339.22;7395000;19;1017;-66
2024/03/06 10:35:40;;;;;;;;;;;;;;;12.26;52.33;96334.25;7394387;19;1136;-68
2024/03/06 10:38:09;;;;;;;;;;;;;;;12.29;52.62;96333.28;7394747;19;1879;-70
2024/03/06 10:40:38;;;;;;;;;;;;;;;12.32;52.75;96342.78;7394671;19;1853;-66
2024/03/06 10:43:07;;;;;;;;;;;;;;;12.62;54.20;96329.91;7394697;19;1039;-71
2024/03/06 10:45:43;;;;;;;;;;;;;;;12.93;51.33;96338.03;7394217;19;1017;-68
2024/03/06 10:48:12;;;;;;;;;;;;;;;13.18;50.04;96328.06;7394538;19;1024;-70
2024/03/06 10:50:43;;;;;;;;;;;;;;;13.39;48.92;96337.44;7394397;19;1822;-68
2024/03/06 10:53:13;;;;;;;;;;;;;;;13.76;49.68;96325.94;7393980;19;1021;-69
2024/03/06 10:55:41;;;;;;;;;;;;;;;14.01;48.34;96320.19;7394268;19;1811;-71
2024/03/06 10:58:11;;;;;;;;;;;;;;;14.32;49.19;96317.59;7394261;19;1063;-72
2024/03/06 11:00:43;;;;;;;;;;;;;;;14.58;45.69;96310.00;7394212;19;1032;-69
2024/03/06 11:03:13;;;;;;;;;;;;;;;14.55;45.87;96312.81;7400078;19;1129;-69
2024/03/06 11:05:42;;;;;;;;;;;;;;;14.44;46.13;96310.78;7401580;19;1841;-69
2024/03/06 11:08:12;;;;;;;;;;;;;;;14.12;46.19;96316.94;7400679;19;1172;-73
2024/03/06 11:10:41;;;;;;;;;;;;;;;13.88;46.75;96314.72;7398279;19;1858;-68
2024/03/06 11:13:23;;;;;;;;;;;;;;;13.58;46.83;96315.44;7401534;19;1045;-72
2024/03/06 11:15:54;;;;;;;;;;;;;;;13.36;47.62;96313.09;7401490;19;965;-70
2024/03/06 11:18:43;;;;;;;;;;;;;;;13.35;48.34;96311.41;7400892;19;1198;-72
2024/03/06 11:21:28;;;;;;;;;;;;;;;12.97;49.74;96297.56;7400070;19;1024;-68
2024/03/06 11:24:11;;;;;;;;;;;;;;;12.64;50.39;96300.97;7400644;19;1021;-70
2024/03/06 11:26:44;;;;;;;;;;;;;;;12.55;51.09;96302.28;7400442;19;2404;-65
2024/03/06 11:29:13;;;;;;;;;;;;;;;12.26;53.90;96296.72;7399397;19;1849;-69
2024/03/06 11:31:41;;;;;;;;;;;;;;;11.86;56.92;96300.28;7401087;19;1654;-67
2024/03/06 11:34:15;;;;;;;;;;;;;;;11.66;59.91;96293.38;7400728;19;1917;-71
2024/03/06 11:36:44;;;;;;;;;;;;;;;11.51;61.90;96289.69;7400499;19;1029;-73
2024/03/06 11:39:12;;;;;;;;;;;;;;;11.33;63.48;96297.47;7400351;19;1246;-70
2024/03/06 11:41:52;;;;;;;;;;;;;;;11.26;65.65;96293.44;7400169;19;1119;-67
2024/03/06 11:44:23;;;;;;;;;;;;;;;11.09;65.52;96296.78;7400480;19;942;-67
2024/03/06 11:46:53;;;;;;;;;;;;;;;11.10;65.68;96301.09;7400411;19;1024;-67
2024/03/06 11:49:24;;;;;;;;;;;;;;;11.01;65.46;96294.50;7399366;19;1838;-67
2024/03/06 11:51:53;;;;;;;;;;;;;;;10.99;66.37;96296.34;7400620;19;955;-70
2024/03/06 11:54:23;;;;;;;;;;;;;;;10.95;66.26;96302.59;7399728;19;1124;-70
2024/03/06 11:56:55;;;;;;;;;;;;;;;10.95;64.22;96306.09;7399572;19;935;-70
2024/03/06 11:59:26;;;;;;;;;;;;;;;11.05;64.85;96297.84;7399621;19;1080;-69
2024/03/06 12:01:55;;;;;;;;;;;;;;;11.19;64.44;96298.06;7399488;19;1060;-69
2024/03/06 12:04:24;;;;;;;;;;;;;;;11.36;63.56;96297.31;7399501;19;1088;-71
2024/03/06 12:06:52;;;;;;;;;;;;;;;11.66;62.54;96301.22;7399250;19;1143;-70
2024/03/06 12:09:21;;;;;;;;;;;;;;;11.91;60.73;96299.22;7397592;19;1861;-68
2024/03/06 12:11:49;;;;;;;;;;;;;;;12.01;57.82;96293.47;7399138;19;1143;-72
2024/03/06 12:14:23;;;;;;;;;;;;;;;12.05;57.33;96294.19;7396224;19;1151;-69
2024/03/06 12:16:58;;;;;;;;;;;;;;;12.08;55.95;96298.47;7398999;19;1089;-66
2024/03/06 12:19:28;;;;;;;;;;;;;;;12.25;53.87;96305.50;7398902;19;1192;-67
2024/03/06 12:21:56;;;;;;;;;;;;;;;12.42;53.77;96293.34;7398871;19;1835;-67
2024/03/06 12:24:25;;;;;;;;;;;;;;;12.66;52.57;96296.50;7398791;19;1019;-67
2024/03/06 12:27:03;;;;;;;;;;;;;;;12.85;53.27;96296.44;7399074;19;951;-70
2024/03/06 12:29:34;;;;;;;;;;;;;;;12.94;52.23;96292.47;7397761;19;1838;-69
2024/03/06 12:32:03;;;;;;;;;;;;;;;12.98;50.83;96294.00;7398395;19;1033;-69
2024/03/06 12:34:32;;;;;;;;;;;;;;;13.18;50.79;96294.75;7398455;19;1091;-67
2024/03/06 12:37:10;;;;;;;;;;;;;;;13.29;49.12;96299.44;7398898;19;1024;-66
2024/03/06 12:39:39;;;;;;;;;;;;;;;13.13;48.79;96295.00;7398196;19;1021;-63
2024/03/06 12:42:08;;;;;;;;;;;;;;;13.18;49.57;96291.31;7398621;19;1018;-66
2024/03/06 12:44:40;;;;;;;;;;;;;;;13.10;48.55;96295.16;7397990;19;1148;-67
2024/03/06 12:47:09;;;;;;;;;;;;;;;13.22;48.11;96300.72;7397988;19;959;-69
2024/03/06 12:49:37;;;;;;;;;;;;;;;12.99;49.14;96303.59;7397975;19;1837;-70
2024/03/06 12:52:06;;;;;;;;;;;;;;;13.02;48.60;96300.81;7398266;19;1035;-65
2024/03/06 12:54:35;;;;;;;;;;;;;;;12.88;49.08;96296.28;7397805;19;1017;-67
2024/03/06 12:57:05;;;;;;;;;;;;;;;12.85;47.59;96291.19;7397646;19;1029;-70
2024/03/06 12:59:34;;;;;;;;;;;;;;;12.94;47.98;96289.03;7397645;19;1010;-65
2024/03/06 13:02:08;;;;;;;;;;;;;;;13.04;48.63;96294.63;7397492;19;1017;-69
2024/03/06 13:04:37;;;;;;;;;;;;;;;12.97;48.49;96296.72;7397364;19;1164;-64
2024/03/06 13:07:06;;;;;;;;;;;;;;;12.90;48.12;96304.06;7397333;19;1052;-69
2024/03/06 13:09:35;;;;;;;;;;;;;;;12.95;47.52;96296.81;7396230;19;1845;-70
2024/03/06 13:12:04;;;;;;;;;;;;;;;13.04;48.70;96295.50;7397211;19;1119;-68
2024/03/06 13:14:33;;;;;;;;;;;;;;;13.20;47.82;96294.69;7397209;19;1037;-64
2024/03/06 13:17:04;;;;;;;;;;;;;;;13.25;48.23;96295.28;7397838;19;1746;-69
2024/03/06 13:19:36;;;;;;;;;;;;;;;13.32;50.00;96295.81;7396976;19;1121;-63